Time;durP1;ratioP1;P1;durP2;ratioP2;P2;SDS_P1;SDS_P2;PMS_P1;PMS_P2;Temp;Humidity;BMP_temperature;BMP_pressure;BME280_temperature;BME280_humidity;BME280_pressure;Samples;Min_cycle;Max_cycle;Signal;HPM_P1;HPM_P2
2021/11/30 00:01:13;;;;;;;9.48;4.90;;;4.70;99.90;;;;;;5035940;28;20025;-71
2021/11/30 00:03:40;;;;;;;6.55;4.45;;;4.70;99.90;;;;;;5035832;28;20390;-72
2021/11/30 00:06:07;;;;;;;8.27;4.45;;;4.70;99.90;;;;;;5036112;28;20112;-72
2021/11/30 00:08:34;;;;;;;9.30;4.93;;;4.80;99.90;;;;;;5035843;28;20024;-73
2021/11/30 00:11:01;;;;;;;7.05;4.00;;;4.80;99.90;;;;;;5035763;28;20519;-72
2021/11/30 00:13:29;;;;;;;7.65;4.35;;;4.80;99.90;;;;;;5035668;28;20022;-72
2021/11/30 00:15:56;;;;;;;6.47;4.10;;;4.80;99.90;;;;;;5035688;28;20025;-71
2021/11/30 00:18:25;;;;;;;10.25;4.90;;;4.80;99.90;;;;;;5035459;28;20044;-71
2021/11/30 00:20:52;;;;;;;9.02;5.05;;;4.90;99.90;;;;;;5035422;28;20033;-72
2021/11/30 00:23:18;;;;;;;9.40;5.75;;;4.90;99.90;;;;;;5035761;28;20021;-72
2021/11/30 00:25:44;;;;;;;11.25;5.45;;;5.00;99.90;;;;;;5035447;28;20072;-73
2021/11/30 00:28:10;;;;;;;11.65;6.68;;;5.10;99.90;;;;;;5035336;28;20021;-72
2021/11/30 00:30:38;;;;;;;16.35;10.50;;;5.10;99.90;;;;;;5035339;28;20059;-72
2021/11/30 00:33:05;;;;;;;12.80;6.78;;;5.20;99.90;;;;;;5035581;28;20033;-72
2021/11/30 00:35:31;;;;;;;44.78;19.90;;;5.20;99.90;;;;;;5035533;28;20042;-73
2021/11/30 00:37:58;;;;;;;24.55;11.25;;;5.20;99.90;;;;;;5035231;28;20171;-73
2021/11/30 00:40:24;;;;;;;16.00;8.18;;;5.20;99.90;;;;;;5035095;28;20033;-72
2021/11/30 00:42:50;;;;;;;32.60;15.98;;;5.30;99.90;;;;;;5035186;28;20028;-72
2021/11/30 00:45:20;;;;;;;26.50;11.90;;;5.30;99.90;;;;;;5035096;28;20018;-71
2021/11/30 00:47:58;;;;;;;30.63;13.65;;;5.20;99.90;;;;;;5035070;28;20504;-72
2021/11/30 00:50:26;;;;;;;11.93;6.00;;;5.20;99.90;;;;;;5034989;28;20035;-73
2021/11/30 00:52:54;;;;;;;9.55;4.50;;;5.20;99.90;;;;;;5034945;28;20492;-72
2021/11/30 00:55:20;;;;;;;9.85;4.20;;;5.30;99.90;;;;;;5034960;28;20025;-72
2021/11/30 00:57:47;;;;;;;9.55;3.95;;;5.30;99.90;;;;;;5034828;28;20025;-73
2021/11/30 01:00:18;;;;;;;6.40;3.63;;;5.30;99.90;;;;;;5034720;28;20036;-71
2021/11/30 01:02:44;;;;;;;6.05;2.92;;;5.40;99.90;;;;;;5035050;28;20485;-72
2021/11/30 01:05:13;;;;;;;6.07;3.22;;;5.40;99.90;;;;;;5034722;28;20025;-72
2021/11/30 01:07:39;;;;;;;7.47;3.58;;;5.50;99.90;;;;;;5034914;28;20017;-73
2021/11/30 01:10:10;;;;;;;8.70;3.83;;;5.60;99.90;;;;;;5034655;28;20410;-73
2021/11/30 01:12:36;;;;;;;7.40;3.50;;;5.60;99.90;;;;;;5034892;28;20416;-73
2021/11/30 01:15:04;;;;;;;7.00;3.20;;;5.60;99.90;;;;;;5034486;28;20025;-73
2021/11/30 01:17:30;;;;;;;4.70;2.70;;;5.70;99.90;;;;;;5034468;28;20444;-72
2021/11/30 01:19:55;;;;;;;5.85;3.08;;;5.70;99.90;;;;;;5034569;28;20120;-73
2021/11/30 01:22:21;;;;;;;6.68;2.67;;;5.70;99.90;;;;;;5034359;28;20064;-72
2021/11/30 01:24:47;;;;;;;6.93;2.70;;;5.80;99.90;;;;;;5034307;28;20059;-72
2021/11/30 01:27:13;;;;;;;4.88;2.70;;;5.90;99.90;;;;;;5034252;28;20017;-73
2021/11/30 01:29:38;;;;;;;5.07;2.55;;;5.90;99.90;;;;;;5034182;28;20130;-73
2021/11/30 01:32:04;;;;;;;5.75;2.50;;;5.90;99.90;;;;;;5034203;28;20481;-72
2021/11/30 01:34:31;;;;;;;5.65;2.65;;;5.90;99.90;;;;;;5034704;28;20021;-72
2021/11/30 01:36:57;;;;;;;5.90;3.20;;;5.90;99.90;;;;;;5034346;28;20071;-73
2021/11/30 01:39:23;;;;;;;6.40;2.88;;;5.90;99.90;;;;;;5033960;28;20064;-73
2021/11/30 01:41:48;;;;;;;4.40;2.70;;;5.90;99.90;;;;;;5034219;28;20076;-72
2021/11/30 01:44:38;;;;;;;5.10;2.35;;;5.90;99.90;;;;;;5034224;28;20406;-72
2021/11/30 01:47:22;;;;;;;5.05;2.72;;;5.90;99.90;;;;;;5034280;28;20018;-72
2021/11/30 01:49:49;;;;;;;4.05;2.67;;;6.00;99.90;;;;;;5015841;28;20033;-72
2021/11/30 01:52:15;;;;;;;4.38;2.30;;;5.90;99.90;;;;;;5033840;28;20441;-73
2021/11/30 01:54:42;;;;;;;5.00;2.30;;;6.00;99.90;;;;;;5033800;28;20029;-72
2021/11/30 01:57:11;;;;;;;7.40;3.35;;;6.00;99.90;;;;;;5033773;28;20441;-72
2021/11/30 01:59:37;;;;;;;3.75;2.33;;;6.00;99.90;;;;;;5033623;28;20076;-71
2021/11/30 02:02:04;;;;;;;3.63;2.25;;;6.00;99.90;;;;;;5033235;28;20018;-73
2021/11/30 02:04:29;;;;;;;7.10;2.05;;;6.00;99.90;;;;;;5033583;28;20061;-72
2021/11/30 02:06:55;;;;;;;2.90;1.98;;;6.00;99.90;;;;;;5033575;28;20057;-72
2021/11/30 02:09:21;;;;;;;5.50;2.60;;;6.00;99.90;;;;;;5034078;28;20090;-72
2021/11/30 02:11:47;;;;;;;6.22;3.33;;;6.10;99.90;;;;;;5034047;28;20075;-72
2021/11/30 02:14:13;;;;;;;7.43;4.80;;;6.10;99.90;;;;;;5033467;28;20438;-72
2021/11/30 02:16:39;;;;;;;8.13;5.13;;;6.10;99.90;;;;;;5033460;28;20021;-73
2021/11/30 02:19:05;;;;;;;4.97;3.10;;;6.10;99.90;;;;;;5033033;28;20671;-73
2021/11/30 02:21:40;;;;;;;10.82;6.50;;;6.10;99.90;;;;;;5033602;28;20050;-73
2021/11/30 02:24:07;;;;;;;5.60;3.80;;;6.20;99.90;;;;;;5033396;28;20029;-72
2021/11/30 02:26:35;;;;;;;6.70;4.72;;;6.20;99.90;;;;;;5033360;28;20076;-73
2021/11/30 02:29:03;;;;;;;3.88;2.70;;;6.10;99.90;;;;;;5033605;28;20021;-73
2021/11/30 02:31:36;;;;;;;4.65;2.90;;;6.20;99.90;;;;;;5033296;28;20017;-72
2021/11/30 02:34:06;;;;;;;3.90;2.42;;;6.20;99.90;;;;;;5033826;28;20014;-73
2021/11/30 02:36:48;;;;;;;7.00;2.40;;;6.30;99.90;;;;;;5033496;28;20032;-72
2021/11/30 02:39:16;;;;;;;4.38;2.58;;;6.30;99.90;;;;;;5033147;28;20345;-73
2021/11/30 02:41:43;;;;;;;3.10;2.42;;;6.30;99.90;;;;;;5033062;28;20028;-73
2021/11/30 02:44:11;;;;;;;4.93;2.28;;;6.30;99.90;;;;;;5033209;28;20021;-72
2021/11/30 02:46:47;;;;;;;7.53;3.17;;;6.20;99.90;;;;;;5033419;28;20041;-71
2021/11/30 02:49:26;;;;;;;5.18;3.03;;;6.20;99.90;;;;;;5033714;28;20029;-73
2021/11/30 02:52:02;;;;;;;6.90;2.40;;;6.30;99.90;;;;;;5033205;28;20504;-72
2021/11/30 02:54:27;;;;;;;4.53;3.17;;;6.30;99.90;;;;;;5033403;28;20037;-72
2021/11/30 02:56:57;;;;;;;5.63;2.30;;;6.30;99.90;;;;;;5033338;28;20021;-72
2021/11/30 02:59:25;;;;;;;4.13;2.20;;;6.30;99.90;;;;;;5032936;28;20030;-73
2021/11/30 03:02:00;;;;;;;7.03;2.40;;;6.30;99.90;;;;;;5033000;28;20064;-73
2021/11/30 03:04:27;;;;;;;5.00;2.38;;;6.40;99.90;;;;;;5015007;28;20405;-72
2021/11/30 03:06:55;;;;;;;4.65;2.63;;;6.40;99.90;;;;;;5032964;28;20025;-73
2021/11/30 03:09:21;;;;;;;5.68;2.75;;;6.40;99.90;;;;;;5032921;28;20473;-73
2021/11/30 03:11:47;;;;;;;6.88;2.40;;;6.40;99.90;;;;;;5032878;28;20021;-71
2021/11/30 03:14:13;;;;;;;5.53;3.03;;;6.40;99.90;;;;;;5036784;28;20026;-72
2021/11/30 03:16:40;;;;;;;5.97;2.78;;;6.40;99.90;;;;;;5018902;28;20397;-73
2021/11/30 03:19:06;;;;;;;6.88;2.80;;;6.50;99.90;;;;;;5036202;28;20440;-73
2021/11/30 03:21:32;;;;;;;4.07;2.38;;;6.50;99.90;;;;;;5036617;28;20037;-73
2021/11/30 03:23:58;;;;;;;4.60;2.90;;;6.50;99.90;;;;;;5036581;28;20029;-73
2021/11/30 03:26:24;;;;;;;4.30;2.45;;;6.50;99.90;;;;;;5036810;28;20022;-73
2021/11/30 03:28:50;;;;;;;6.47;3.65;;;6.50;99.90;;;;;;5036801;28;20040;-73
2021/11/30 03:34:05;;;;;;;7.10;3.88;;;6.60;99.90;;;;;;5036477;28;20481;-73
2021/11/30 03:36:32;;;;;;;7.28;4.28;;;6.60;99.90;;;;;;5036930;28;20076;-73
2021/11/30 03:39:00;;;;;;;6.05;4.10;;;6.60;99.90;;;;;;5036541;28;20025;-73
2021/11/30 03:41:31;;;;;;;6.22;3.95;;;6.60;99.90;;;;;;5036242;28;20390;-72
2021/11/30 03:43:58;;;;;;;5.93;2.78;;;6.60;99.90;;;;;;5018510;28;20072;-71
2021/11/30 03:46:24;;;;;;;4.18;3.13;;;6.60;99.90;;;;;;5036471;28;20385;-71
2021/11/30 03:48:49;;;;;;;5.55;2.42;;;6.50;99.90;;;;;;5036144;28;20018;-72
2021/11/30 03:51:15;;;;;;;4.45;2.17;;;6.50;99.90;;;;;;5036117;28;20033;-72
2021/11/30 03:53:41;;;;;;;3.85;1.77;;;6.50;99.90;;;;;;5036637;28;20018;-73
2021/11/30 03:56:07;;;;;;;4.63;2.00;;;6.60;99.90;;;;;;5036014;28;20397;-73
2021/11/30 03:58:32;;;;;;;3.17;1.80;;;6.60;99.90;;;;;;5036532;28;20083;-73
2021/11/30 04:00:58;;;;;;;4.63;2.10;;;6.60;99.90;;;;;;5036103;28;20393;-72
2021/11/30 04:03:27;;;;;;;5.75;2.65;;;6.70;99.90;;;;;;5036149;28;20045;-72
2021/11/30 04:05:53;;;;;;;4.78;2.05;;;6.70;99.90;;;;;;5035833;28;20389;-73
2021/11/30 04:08:18;;;;;;;3.97;2.30;;;6.70;99.90;;;;;;5035827;28;20104;-72
2021/11/30 04:10:44;;;;;;;5.30;2.20;;;6.70;99.90;;;;;;5035793;28;20032;-72
2021/11/30 04:13:10;;;;;;;4.72;2.20;;;6.70;99.90;;;;;;5035718;28;20056;-73
2021/11/30 04:15:36;;;;;;;6.50;3.50;;;6.70;99.90;;;;;;5035678;28;20084;-72
2021/11/30 04:18:02;;;;;;;8.15;3.00;;;6.70;99.90;;;;;;5035620;28;20103;-74
2021/11/30 04:20:27;;;;;;;5.20;2.58;;;6.70;99.90;;;;;;5035478;28;20116;-73
2021/11/30 04:22:53;;;;;;;5.47;2.80;;;6.70;99.90;;;;;;5035853;28;20053;-73
2021/11/30 04:25:19;;;;;;;4.63;2.97;;;6.70;99.90;;;;;;5035106;28;20026;-73
2021/11/30 04:27:45;;;;;;;5.38;2.92;;;6.70;99.90;;;;;;5035718;28;20065;-73
2021/11/30 04:30:11;;;;;;;6.60;3.63;;;6.70;99.90;;;;;;5035408;28;20025;-72
2021/11/30 04:32:37;;;;;;;7.03;3.17;;;6.70;99.90;;;;;;5035401;28;20057;-73
2021/11/30 04:35:03;;;;;;;4.50;2.78;;;6.80;99.90;;;;;;5035352;28;20029;-73
2021/11/30 04:37:29;;;;;;;6.82;3.00;;;6.80;99.90;;;;;;5035853;28;20021;-73
2021/11/30 04:39:55;;;;;;;6.45;3.70;;;6.80;99.90;;;;;;5035146;28;20056;-73
2021/11/30 04:42:25;;;;;;;9.07;3.88;;;6.80;99.90;;;;;;5017342;28;20116;-73
2021/11/30 04:44:57;;;;;;;5.50;3.25;;;6.80;99.90;;;;;;5035460;28;20020;-72
2021/11/30 04:47:26;;;;;;;6.72;3.75;;;6.90;99.90;;;;;;5035111;28;20029;-73
2021/11/30 04:49:58;;;;;;;5.25;3.63;;;6.90;99.90;;;;;;5017279;28;20025;-73
2021/11/30 04:52:23;;;;;;;10.63;3.83;;;6.80;99.90;;;;;;5035294;28;20075;-73
2021/11/30 04:54:49;;;;;;;6.45;3.92;;;6.70;99.90;;;;;;5034917;28;20021;-73
2021/11/30 04:57:15;;;;;;;8.13;4.32;;;6.80;99.90;;;;;;5035404;28;20029;-72
2021/11/30 04:59:41;;;;;;;6.63;4.13;;;6.80;99.90;;;;;;5034724;28;20393;-71
2021/11/30 05:02:07;;;;;;;8.30;5.10;;;6.80;99.90;;;;;;5035005;28;20033;-72
2021/11/30 05:04:34;;;;;;;8.10;4.95;;;6.80;99.90;;;;;;5034739;28;20101;-72
2021/11/30 05:07:00;;;;;;;7.20;4.80;;;6.80;99.90;;;;;;5034681;28;20393;-73
2021/11/30 05:09:26;;;;;;;8.13;5.35;;;6.80;99.90;;;;;;5034669;28;20104;-72
2021/11/30 05:11:51;;;;;;;8.55;4.95;;;6.90;99.90;;;;;;5034864;28;20075;-73
2021/11/30 05:14:17;;;;;;;9.23;4.88;;;6.90;99.90;;;;;;5034597;28;20413;-73
2021/11/30 05:16:43;;;;;;;8.55;4.80;;;6.80;99.90;;;;;;5034785;28;20462;-72
2021/11/30 05:19:08;;;;;;;8.88;4.78;;;6.80;99.90;;;;;;5033980;28;20049;-72
2021/11/30 05:21:34;;;;;;;7.90;5.00;;;6.80;99.90;;;;;;5034988;28;20017;-73
2021/11/30 05:24:03;;;;;;;8.48;5.18;;;6.80;99.90;;;;;;5034364;28;20025;-73
2021/11/30 05:26:30;;;;;;;9.88;5.18;;;6.90;99.90;;;;;;5034333;28;20100;-73
2021/11/30 05:28:56;;;;;;;8.55;5.40;;;6.90;99.90;;;;;;5016563;28;20402;-72
2021/11/30 05:31:22;;;;;;;9.60;5.60;;;6.90;99.90;;;;;;5034211;28;20025;-73
2021/11/30 05:33:48;;;;;;;9.18;5.35;;;6.90;99.90;;;;;;5034216;28;20025;-73
2021/11/30 05:36:16;;;;;;;8.73;4.90;;;6.90;99.90;;;;;;5033137;28;20039;-73
2021/11/30 05:38:42;;;;;;;9.50;5.65;;;6.90;99.90;;;;;;5034245;28;20018;-73
2021/11/30 05:41:07;;;;;;;12.45;5.93;;;6.90;99.90;;;;;;5033946;28;20029;-73
2021/11/30 05:43:33;;;;;;;10.18;5.55;;;7.00;99.90;;;;;;5034089;28;20456;-73
2021/11/30 05:45:59;;;;;;;9.32;5.30;;;7.00;99.90;;;;;;5033924;28;20104;-73
2021/11/30 05:48:25;;;;;;;9.05;5.32;;;7.00;99.90;;;;;;5033914;28;20104;-73
2021/11/30 05:50:52;;;;;;;7.22;5.00;;;7.00;99.90;;;;;;5033907;28;20032;-73
2021/11/30 05:53:17;;;;;;;9.35;5.32;;;7.00;99.90;;;;;;5033842;28;20022;-73
2021/11/30 05:55:44;;;;;;;10.88;4.90;;;7.00;99.90;;;;;;5033808;28;20401;-73
2021/11/30 05:58:13;;;;;;;8.63;5.35;;;7.00;99.90;;;;;;5033804;28;20032;-73
2021/11/30 06:00:39;;;;;;;8.57;5.10;;;7.10;99.90;;;;;;5034204;28;20030;-73
2021/11/30 06:03:08;;;;;;;9.35;4.60;;;7.10;99.90;;;;;;5033947;28;20036;-73
2021/11/30 06:05:34;;;;;;;12.13;5.63;;;7.10;99.90;;;;;;5033676;28;20509;-72
2021/11/30 06:08:00;;;;;;;8.90;5.05;;;7.10;99.90;;;;;;5033863;28;20014;-72
2021/11/30 06:10:26;;;;;;;6.40;4.55;;;7.10;99.90;;;;;;5033593;28;20397;-72
2021/11/30 06:12:53;;;;;;;9.80;6.95;;;7.10;99.90;;;;;;5033512;28;20036;-73
2021/11/30 06:15:19;;;;;;;9.48;5.32;;;7.10;99.90;;;;;;5033507;28;20038;-72
2021/11/30 06:17:45;;;;;;;9.20;5.45;;;7.10;99.90;;;;;;5033664;28;20041;-72
2021/11/30 06:20:11;;;;;;;9.00;5.47;;;7.10;99.90;;;;;;5033653;28;20442;-73
2021/11/30 06:22:38;;;;;;;8.88;5.35;;;7.10;99.90;;;;;;5033425;28;20028;-72
2021/11/30 06:25:05;;;;;;;10.00;4.97;;;7.10;99.90;;;;;;5033669;28;20060;-72
2021/11/30 06:27:31;;;;;;;8.98;5.43;;;7.10;99.90;;;;;;5033342;28;20358;-73
2021/11/30 06:29:57;;;;;;;10.10;6.65;;;7.20;99.90;;;;;;5033568;28;20036;-72
2021/11/30 06:32:22;;;;;;;13.63;7.78;;;7.10;99.90;;;;;;5033553;28;20033;-73
2021/11/30 06:34:49;;;;;;;20.25;8.68;;;7.10;99.90;;;;;;5033550;28;20025;-73
2021/11/30 06:37:14;;;;;;;19.05;11.35;;;7.20;99.90;;;;;;5033503;28;20021;-73
2021/11/30 06:39:40;;;;;;;15.07;8.27;;;7.20;99.90;;;;;;5033141;28;20048;-71
2021/11/30 06:42:06;;;;;;;22.02;12.70;;;7.20;99.90;;;;;;5033707;28;20017;-72
2021/11/30 06:44:33;;;;;;;16.55;10.32;;;7.20;99.90;;;;;;5033220;28;20026;-72
2021/11/30 06:46:59;;;;;;;15.68;9.50;;;7.20;99.90;;;;;;5033433;28;20024;-71
2021/11/30 06:49:24;;;;;;;15.23;8.25;;;7.20;99.90;;;;;;5037533;28;20104;-73
2021/11/30 06:51:50;;;;;;;14.80;8.25;;;7.20;99.90;;;;;;5037269;28;20026;-72
2021/11/30 06:54:16;;;;;;;19.90;14.10;;;7.20;99.90;;;;;;5037454;28;20473;-73
2021/11/30 06:56:41;;;;;;;15.77;10.30;;;7.20;99.90;;;;;;5037382;28;20477;-73
2021/11/30 06:59:07;;;;;;;14.40;8.02;;;7.20;99.90;;;;;;5036980;28;20037;-72
2021/11/30 07:01:34;;;;;;;12.40;8.00;;;7.20;99.90;;;;;;5037064;28;20442;-73
2021/11/30 07:04:02;;;;;;;15.82;8.73;;;7.30;99.90;;;;;;5036974;28;20025;-72
2021/11/30 07:14:46;;;;;;;11.05;6.78;;;7.30;99.90;;;;;;4999694;28;20033;-73
2021/11/30 07:17:12;;;;;;;13.00;6.70;;;7.30;99.90;;;;;;5036575;28;20075;-72
2021/11/30 07:19:38;;;;;;;9.82;6.38;;;7.30;99.90;;;;;;5036969;28;20033;-72
2021/11/30 07:22:03;;;;;;;12.48;7.32;;;7.30;99.90;;;;;;5036933;28;20428;-73
2021/11/30 07:24:29;;;;;;;14.63;7.63;;;7.30;99.90;;;;;;5036670;28;20489;-72
2021/11/30 07:26:55;;;;;;;13.55;7.15;;;7.30;99.90;;;;;;5036607;28;20452;-73
2021/11/30 07:29:20;;;;;;;11.30;6.93;;;7.30;99.90;;;;;;5036557;28;20075;-71
2021/11/30 07:31:46;;;;;;;12.02;7.28;;;7.20;99.90;;;;;;5036768;28;20030;-72
2021/11/30 07:34:12;;;;;;;13.50;6.60;;;7.20;99.90;;;;;;5036431;28;20029;-72
2021/11/30 07:36:38;;;;;;;11.88;6.88;;;7.30;99.90;;;;;;5036658;28;20497;-71
2021/11/30 07:39:04;;;;;;;14.10;6.35;;;7.30;99.90;;;;;;5036307;28;20029;-72
2021/11/30 07:41:32;;;;;;;12.10;8.63;;;7.30;99.90;;;;;;5036325;28;20022;-72
2021/11/30 07:43:57;;;;;;;16.70;9.20;;;7.30;99.90;;;;;;5036241;28;20097;-71
2021/11/30 07:46:23;;;;;;;10.60;7.53;;;7.30;99.90;;;;;;5036231;28;20032;-72
2021/11/30 07:48:49;;;;;;;12.98;7.70;;;7.30;99.90;;;;;;5036204;28;20031;-72
2021/11/30 07:51:16;;;;;;;12.45;6.80;;;7.40;99.90;;;;;;5036404;28;20060;-72
2021/11/30 07:53:44;;;;;;;11.15;7.05;;;7.40;99.90;;;;;;5036654;28;20040;-71
2021/11/30 07:56:10;;;;;;;15.80;9.48;;;7.40;99.90;;;;;;5036053;28;20030;-72
2021/11/30 07:58:36;;;;;;;12.68;7.80;;;7.40;99.90;;;;;;5035767;28;20101;-71
2021/11/30 08:01:02;;;;;;;11.90;7.65;;;7.40;99.90;;;;;;5035855;28;20026;-72
2021/11/30 08:03:28;;;;;;;14.77;8.55;;;7.40;99.90;;;;;;5036207;28;20075;-71
2021/11/30 08:05:54;;;;;;;14.15;9.63;;;7.40;99.90;;;;;;5035862;28;20025;-71
2021/11/30 08:08:20;;;;;;;13.48;8.55;;;7.40;99.90;;;;;;5035821;28;20026;-72
2021/11/30 08:10:47;;;;;;;12.95;9.23;;;7.40;99.90;;;;;;5035794;28;20116;-72
2021/11/30 08:13:12;;;;;;;15.43;10.38;;;7.40;99.90;;;;;;5036281;28;20061;-71
2021/11/30 08:15:38;;;;;;;16.25;9.70;;;7.50;99.90;;;;;;5035709;28;20099;-72
2021/11/30 08:18:05;;;;;;;16.85;10.63;;;7.60;99.90;;;;;;5035488;28;20497;-72
2021/11/30 08:20:31;;;;;;;18.63;11.00;;;7.60;99.90;;;;;;5035545;28;20021;-72
2021/11/30 08:22:57;;;;;;;14.23;8.43;;;7.70;99.90;;;;;;5035580;28;20017;-72
2021/11/30 08:25:24;;;;;;;13.23;7.15;;;7.80;99.90;;;;;;5017782;28;20100;-72
2021/11/30 08:27:50;;;;;;;12.98;8.75;;;7.80;99.90;;;;;;5035466;28;20033;-72
2021/11/30 08:30:16;;;;;;;12.57;8.18;;;7.90;99.90;;;;;;5035411;28;20550;-72
2021/11/30 08:32:41;;;;;;;12.30;8.35;;;7.90;99.90;;;;;;5035403;28;20025;-72
2021/11/30 08:35:09;;;;;;;19.30;11.55;;;8.00;99.90;;;;;;5034051;28;20388;-72
2021/11/30 08:37:34;;;;;;;16.70;11.20;;;8.00;99.90;;;;;;5035287;28;20440;-71
2021/11/30 08:40:01;;;;;;;20.05;12.38;;;8.00;99.90;;;;;;5035138;28;20026;-71
2021/11/30 08:42:27;;;;;;;11.10;7.47;;;8.10;99.90;;;;;;5035086;28;20030;-71
2021/11/30 08:44:53;;;;;;;11.85;7.97;;;8.10;99.90;;;;;;5035133;28;20021;-71
2021/11/30 08:47:21;;;;;;;11.10;7.40;;;8.10;99.90;;;;;;5035141;28;20104;-71
2021/11/30 08:49:47;;;;;;;11.65;8.52;;;8.20;99.90;;;;;;5035310;28;20017;-71
2021/11/30 08:52:18;;;;;;;14.52;8.98;;;8.20;99.90;;;;;;5035060;28;20053;-71
2021/11/30 08:54:45;;;;;;;11.52;6.78;;;8.20;99.90;;;;;;5035330;28;20432;-71
2021/11/30 08:57:11;;;;;;;12.70;6.53;;;8.20;99.90;;;;;;5034941;28;20117;-71
2021/11/30 08:59:38;;;;;;;12.98;6.32;;;8.30;99.90;;;;;;5035084;28;20060;-71
2021/11/30 09:02:05;;;;;;;11.57;6.50;;;8.30;99.90;;;;;;5034825;28;20071;-71
2021/11/30 09:04:30;;;;;;;12.60;6.75;;;8.30;99.90;;;;;;5034779;28;20101;-71
2021/11/30 09:06:56;;;;;;;13.18;7.25;;;8.30;99.90;;;;;;5034734;28;20144;-71
2021/11/30 09:09:22;;;;;;;13.70;6.60;;;8.30;99.90;;;;;;5034651;28;20032;-71
2021/11/30 09:11:47;;;;;;;13.50;7.18;;;8.40;99.90;;;;;;5034301;28;20074;-71
2021/11/30 09:14:19;;;;;;;10.48;6.75;;;8.50;99.90;;;;;;5034557;28;20155;-71
2021/11/30 09:16:44;;;;;;;12.77;6.90;;;8.50;99.90;;;;;;5034852;28;20033;-71
2021/11/30 09:19:10;;;;;;;13.00;6.85;;;8.50;99.90;;;;;;5033974;28;20053;-71
2021/11/30 09:21:36;;;;;;;11.27;6.90;;;8.50;99.90;;;;;;5034282;28;20032;-71
2021/11/30 09:24:02;;;;;;;12.95;8.27;;;8.50;99.90;;;;;;5034355;28;20017;-71
2021/11/30 09:26:27;;;;;;;11.80;7.57;;;8.50;99.90;;;;;;5034372;28;20026;-71
2021/11/30 09:28:53;;;;;;;10.10;6.38;;;8.50;99.90;;;;;;5034295;28;20022;-71
2021/11/30 09:31:19;;;;;;;12.93;7.68;;;8.60;99.90;;;;;;5034236;28;20026;-71
2021/11/30 09:33:44;;;;;;;13.90;8.38;;;8.70;99.90;;;;;;5034193;28;20021;-71
2021/11/30 09:36:12;;;;;;;12.43;8.10;;;8.80;99.90;;;;;;5034162;28;20478;-71
2021/11/30 09:38:38;;;;;;;12.90;8.60;;;8.80;99.90;;;;;;5034087;28;20076;-71
2021/11/30 09:41:05;;;;;;;13.48;7.13;;;8.90;99.90;;;;;;5034019;28;20105;-71
2021/11/30 09:43:33;;;;;;;12.07;7.32;;;8.90;99.90;;;;;;5033993;28;20021;-71
2021/11/30 09:46:02;;;;;;;12.93;7.18;;;9.00;99.90;;;;;;5033944;28;20148;-71
2021/11/30 09:48:30;;;;;;;13.95;7.97;;;9.00;99.90;;;;;;5033967;28;20017;-71
2021/11/30 09:50:57;;;;;;;10.40;6.95;;;9.10;99.90;;;;;;5033853;28;20108;-71
2021/11/30 09:53:24;;;;;;;12.52;6.93;;;9.10;99.90;;;;;;5033857;28;20030;-71
2021/11/30 09:55:50;;;;;;;12.10;6.70;;;9.10;99.90;;;;;;5033824;28;20021;-72
2021/11/30 09:58:19;;;;;;;9.45;5.65;;;9.20;99.90;;;;;;5033835;28;20017;-71
2021/11/30 10:00:46;;;;;;;10.90;6.53;;;9.20;99.90;;;;;;5033681;28;20036;-71
2021/11/30 10:03:13;;;;;;;10.82;7.28;;;9.20;99.90;;;;;;5033700;28;20100;-71
2021/11/30 10:05:39;;;;;;;12.40;7.05;;;9.30;99.90;;;;;;5033687;28;20493;-71
2021/11/30 10:08:06;;;;;;;11.27;6.53;;;9.30;99.90;;;;;;5033630;28;20025;-71
2021/11/30 10:10:37;;;;;;;23.30;10.70;;;9.30;99.90;;;;;;5033655;28;20028;-71
2021/11/30 10:13:02;;;;;;;;;;;9.40;99.90;;;;;;5034068;28;20389;-71
2021/11/30 10:15:29;;;;;;;12.80;8.50;;;9.40;99.90;;;;;;5033799;28;20000;-71
2021/11/30 10:18:17;;;;;;;10.45;5.85;;;9.30;99.90;;;;;;5033411;28;20076;-72
2021/11/30 10:20:48;;;;;;;13.25;6.95;;;9.40;99.90;;;;;;5033343;28;20516;-71
2021/11/30 10:23:17;;;;;;;10.90;6.10;;;9.40;99.90;;;;;;5032899;28;20104;-71
2021/11/30 10:25:45;;;;;;;9.82;5.90;;;9.40;99.90;;;;;;5033369;28;20028;-71
2021/11/30 10:28:16;;;;;;;9.50;6.40;;;9.50;99.90;;;;;;5033324;28;20045;-71
2021/11/30 10:30:44;;;;;;;9.57;6.50;;;9.60;99.90;;;;;;5033405;28;20450;-71
2021/11/30 10:33:36;;;;;;;13.65;8.80;;;9.70;99.90;;;;;;5015519;28;20464;-71
2021/11/30 10:36:05;;;;;;;14.15;7.70;;;9.80;99.90;;;;;;5031244;28;20037;-71
2021/11/30 10:38:38;;;;;;;11.98;7.47;;;9.90;99.90;;;;;;5033255;28;20040;-71
2021/11/30 10:41:23;;;;;;;15.00;9.32;;;10.00;99.90;;;;;;5033109;28;20022;-71
2021/11/30 10:43:57;;;;;;;10.40;6.90;;;10.10;99.90;;;;;;5033643;28;20466;-71
2021/11/30 10:46:24;;;;;;;11.68;6.82;;;10.20;99.90;;;;;;5033752;28;20028;-71
2021/11/30 10:48:50;;;;;;;10.60;6.15;;;10.30;99.90;;;;;;5033155;28;20021;-72
2021/11/30 10:51:16;;;;;;;11.98;6.15;;;10.30;99.90;;;;;;5032929;28;20051;-71
2021/11/30 10:53:46;;;;;;;9.63;5.35;;;10.30;99.90;;;;;;5033111;28;20033;-71
2021/11/30 10:56:12;;;;;;;9.90;5.47;;;10.30;99.90;;;;;;5033061;28;20075;-71
2021/11/30 10:58:40;;;;;;;15.57;6.57;;;10.40;99.90;;;;;;5032989;28;20029;-71
2021/11/30 11:01:27;;;;;;;9.77;5.03;;;10.40;99.90;;;;;;5032912;28;20079;-71
2021/11/30 11:04:06;;;;;;;10.48;5.72;;;10.50;99.90;;;;;;5032864;28;20030;-71
2021/11/30 11:06:32;;;;;;;9.38;4.97;;;10.70;99.90;;;;;;5032909;28;20025;-71
2021/11/30 11:09:09;;;;;;;9.10;5.05;;;10.70;99.90;;;;;;5032740;28;20033;-71
2021/11/30 11:11:36;;;;;;;11.95;4.82;;;10.80;99.90;;;;;;5033149;28;20028;-71
2021/11/30 11:14:05;;;;;;;9.23;4.32;;;10.90;99.90;;;;;;5033176;28;20029;-71
2021/11/30 11:16:35;;;;;;;11.55;6.05;;;10.90;99.90;;;;;;5032878;28;20017;-71
2021/11/30 11:19:02;;;;;;;;;;;10.90;99.90;;;;;;5032917;28;20143;-71
2021/11/30 11:21:31;;;;;;;6.55;4.25;;;11.00;99.90;;;;;;5032783;28;19909;-71
2021/11/30 11:24:13;;;;;;;7.88;4.32;;;11.00;99.90;;;;;;5032918;28;20523;-71
2021/11/30 11:26:42;;;;;;;8.82;3.90;;;11.00;99.90;;;;;;5033087;28;20470;-72
2021/11/30 11:29:21;;;;;;;7.95;4.50;;;11.00;99.90;;;;;;5032764;28;20018;-71
2021/11/30 11:31:51;;;;;;;12.00;5.50;;;11.10;99.90;;;;;;5033342;28;20049;-71
2021/11/30 11:34:20;;;;;;;8.73;3.97;;;11.10;99.90;;;;;;5034949;28;20022;-72
2021/11/30 11:36:47;;;;;;;5.97;2.97;;;11.10;99.90;;;;;;5036392;28;20493;-72
2021/11/30 11:39:16;;;;;;;8.35;4.45;;;11.10;99.90;;;;;;5036249;28;20013;-72
2021/11/30 11:41:42;;;;;;;11.25;5.28;;;11.10;99.90;;;;;;5036294;28;20402;-72
2021/11/30 11:44:08;;;;;;;5.38;3.20;;;11.10;99.90;;;;;;5036301;28;20025;-72
2021/11/30 11:46:38;;;;;;;6.05;2.30;;;11.10;99.90;;;;;;5036316;28;20021;-72
2021/11/30 11:49:07;;;;;;;4.72;2.25;;;11.10;99.90;;;;;;5036519;28;20041;-72
2021/11/30 11:51:42;;;;;;;8.85;3.22;;;11.10;99.90;;;;;;5036731;28;20029;-72
2021/11/30 11:54:22;;;;;;;5.53;2.20;;;11.10;99.90;;;;;;5036183;28;20449;-72
2021/11/30 11:57:00;;;;;;;2.17;1.63;;;11.20;99.90;;;;;;5036152;28;20091;-72
2021/11/30 11:59:35;;;;;;;6.93;1.75;;;11.20;99.90;;;;;;5036275;28;20048;-72
2021/11/30 12:02:20;;;;;;;9.13;3.65;;;11.20;99.90;;;;;;5036588;28;20105;-72
2021/11/30 12:04:51;;;;;;;6.53;2.47;;;11.20;99.90;;;;;;5017933;28;20482;-71
2021/11/30 12:07:18;;;;;;;10.73;4.03;;;11.20;99.90;;;;;;5017898;28;20112;-72
2021/11/30 12:09:43;;;;;;;4.68;1.90;;;11.30;99.90;;;;;;5035835;28;20025;-72
2021/11/30 12:12:09;;;;;;;4.68;1.88;;;11.40;99.90;;;;;;5036065;28;20036;-71
2021/11/30 12:14:39;;;;;;;5.03;2.08;;;11.40;99.90;;;;;;5036031;28;20032;-71
2021/11/30 12:17:09;;;;;;;;;;;11.40;99.90;;;;;;5035938;28;20026;-71
2021/11/30 12:20:11;;;;;;;3.70;2.30;;;11.40;99.90;;;;;;5036224;28;20015;-72
2021/11/30 12:22:56;;;;;;;3.25;2.00;;;11.40;99.90;;;;;;5035158;28;20033;-72
2021/11/30 12:25:26;;;;;;;5.40;2.80;;;11.40;99.90;;;;;;5035877;28;20021;-71
2021/11/30 12:28:01;;;;;;;5.35;2.60;;;11.40;99.90;;;;;;5035840;28;20092;-71
2021/11/30 12:30:42;;;;;;;4.22;1.80;;;11.40;99.90;;;;;;5035398;28;20060;-71
2021/11/30 12:33:15;;;;;;;4.28;1.58;;;11.40;99.90;;;;;;5035683;28;20024;-71
2021/11/30 12:36:00;;;;;;;2.17;1.50;;;11.40;99.90;;;;;;5035629;28;20117;-71
2021/11/30 12:38:33;;;;;;;5.28;1.92;;;11.40;99.90;;;;;;5035253;28;20079;-71
2021/11/30 12:41:02;;;;;;;5.65;1.60;;;11.50;99.90;;;;;;5035489;28;20036;-71
2021/11/30 12:43:31;;;;;;;4.55;1.65;;;11.50;99.90;;;;;;5035104;28;20028;-71
2021/11/30 12:46:03;;;;;;;5.53;2.47;;;11.60;99.90;;;;;;5034843;28;20108;-71
2021/11/30 12:48:32;;;;;;;7.88;3.13;;;11.60;99.90;;;;;;5035443;28;20022;-71
2021/11/30 12:51:20;;;;;;;4.88;2.00;;;11.70;99.90;;;;;;5035586;28;20418;-71
2021/11/30 12:53:47;;;;;;;4.97;1.60;;;11.70;99.90;;;;;;5035331;28;20030;-71
2021/11/30 12:56:13;;;;;;;5.18;1.80;;;11.70;99.90;;;;;;5034965;28;20033;-71
2021/11/30 12:58:49;;;;;;;4.75;2.33;;;11.80;99.90;;;;;;5034934;28;20393;-71
2021/11/30 13:01:23;;;;;;;4.75;2.20;;;11.80;99.90;;;;;;5035093;28;20075;-71
2021/11/30 13:04:10;;;;;;;3.78;2.08;;;11.80;99.90;;;;;;5034786;28;20021;-71
2021/11/30 13:07:01;;;;;;;3.55;1.80;;;11.80;99.90;;;;;;5035165;28;20385;-71